createdAt,value
2022-10-06T00:02:13.733Z,5.70
2022-10-06T00:04:40.095Z,4.18
2022-10-06T00:07:06.476Z,5.28
2022-10-06T00:09:32.907Z,3.60
2022-10-06T00:12:00.002Z,3.90
2022-10-06T00:14:27.259Z,5.85
2022-10-06T00:16:53.745Z,9.20
2022-10-06T00:19:20.090Z,5.55
2022-10-06T00:21:46.462Z,4.90
2022-10-06T00:24:12.814Z,4.32
2022-10-06T00:26:39.145Z,4.70
2022-10-06T00:29:05.472Z,4.00
2022-10-06T00:31:31.871Z,4.55
2022-10-06T00:33:58.206Z,4.40
2022-10-06T00:36:24.565Z,6.22
2022-10-06T00:38:51.017Z,5.78
2022-10-06T00:41:18.026Z,3.70
2022-10-06T00:43:59.061Z,4.53
2022-10-06T00:46:37.963Z,5.80
2022-10-06T00:49:32.686Z,5.15
2022-10-06T00:52:04.308Z,7.10
2022-10-06T00:54:32.689Z,12.57
2022-10-06T00:56:59.450Z,7.78
2022-10-06T00:59:25.893Z,13.68
2022-10-06T01:02:08.953Z,7.40
2022-10-06T01:04:38.061Z,6.60
2022-10-06T01:07:04.873Z,6.78
2022-10-06T01:09:31.587Z,7.65
2022-10-06T01:12:01.389Z,5.03
2022-10-06T01:14:28.429Z,7.00
2022-10-06T01:17:02.654Z,8.32
2022-10-06T01:19:47.470Z,7.40
2022-10-06T01:22:16.611Z,6.93
2022-10-06T01:24:46.654Z,7.45
2022-10-06T01:27:15.213Z,4.07
2022-10-06T01:29:41.721Z,5.32
2022-10-06T01:32:08.386Z,6.03
2022-10-06T01:34:34.938Z,7.57
2022-10-06T01:37:01.261Z,10.30
2022-10-06T01:39:27.590Z,4.85
2022-10-06T01:41:53.880Z,4.18
2022-10-06T01:44:20.372Z,7.75
2022-10-06T01:46:46.706Z,3.97
2022-10-06T01:49:13.035Z,6.13
2022-10-06T01:51:39.353Z,6.90
2022-10-06T01:54:05.699Z,5.03
2022-10-06T01:56:32.022Z,3.83
2022-10-06T01:58:58.366Z,3.60
2022-10-06T02:01:24.754Z,4.57
2022-10-06T02:03:51.075Z,5.20
2022-10-06T02:06:17.548Z,7.65
2022-10-06T02:08:43.933Z,4.40
2022-10-06T02:11:11.962Z,4.18
2022-10-06T02:13:39.057Z,4.03
2022-10-06T02:16:07.898Z,5.55
2022-10-06T02:18:35.522Z,5.25
2022-10-06T02:21:03.207Z,5.13
2022-10-06T02:23:30.050Z,5.90
2022-10-06T02:25:59.856Z,3.95
2022-10-06T02:28:26.914Z,5.40
2022-10-06T02:30:53.497Z,4.18
2022-10-06T02:33:19.873Z,6.45
2022-10-06T02:35:47.061Z,7.03
2022-10-06T02:38:13.393Z,3.97
2022-10-06T02:40:39.690Z,3.53
2022-10-06T02:43:06.020Z,4.60
2022-10-06T02:45:32.339Z,4.18
2022-10-06T02:47:58.662Z,10.38
2022-10-06T02:50:25.018Z,4.90
2022-10-06T02:52:51.353Z,4.70
2022-10-06T02:55:17.823Z,4.70
2022-10-06T02:57:44.244Z,5.07
2022-10-06T03:00:11.301Z,2.85
2022-10-06T03:02:37.693Z,9.25
2022-10-06T03:05:04.538Z,5.55
2022-10-06T03:07:30.855Z,2.63
2022-10-06T03:09:57.265Z,5.47
2022-10-06T03:12:23.899Z,2.10
2022-10-06T03:14:50.197Z,0.85
2022-10-06T03:17:16.552Z,1.40
2022-10-06T03:19:42.864Z,1.67
2022-10-06T03:22:10.459Z,2.35
2022-10-06T03:24:36.830Z,1.65
2022-10-06T03:27:04.188Z,3.70
2022-10-06T03:29:31.081Z,1.80
2022-10-06T03:31:58.413Z,0.70
2022-10-06T03:34:24.930Z,2.15
2022-10-06T03:36:51.577Z,0.50
2022-10-06T03:39:17.897Z,0.75
2022-10-06T03:41:47.284Z,1.15
2022-10-06T03:44:13.636Z,1.45
2022-10-06T03:46:40.063Z,2.50
2022-10-06T03:49:06.766Z,3.88
2022-10-06T03:51:38.830Z,2.40
2022-10-06T03:54:05.342Z,1.75
2022-10-06T03:56:36.991Z,1.48
2022-10-06T03:59:14.061Z,1.15
2022-10-06T04:01:45.605Z,0.20
2022-10-06T04:04:13.206Z,0.55
2022-10-06T04:06:42.498Z,1.30
2022-10-06T04:09:15.319Z,0.50
2022-10-06T04:11:43.883Z,1.27
2022-10-06T04:14:12.990Z,1.30
2022-10-06T04:16:41.962Z,2.05
2022-10-06T04:19:10.087Z,0.95
2022-10-06T04:21:38.107Z,2.63
2022-10-06T04:24:05.871Z,2.17
2022-10-06T04:26:36.239Z,0.60
2022-10-06T04:29:02.631Z,2.15
2022-10-06T04:31:32.790Z,0.40
2022-10-06T04:34:01.250Z,1.27
2022-10-06T04:36:29.894Z,2.03
2022-10-06T04:39:02.621Z,1.95
2022-10-06T04:41:34.820Z,1.60
2022-10-06T04:44:02.323Z,2.30
2022-10-06T04:46:42.645Z,1.08
2022-10-06T04:49:13.345Z,2.30
2022-10-06T04:51:44.376Z,1.38
2022-10-06T04:54:10.829Z,0.85
2022-10-06T04:56:37.178Z,2.80
2022-10-06T04:59:03.708Z,0.93
2022-10-06T05:01:32.285Z,2.40
2022-10-06T05:04:00.926Z,2.25
2022-10-06T05:06:33.143Z,1.55
2022-10-06T05:09:02.272Z,0.93
2022-10-06T05:11:29.467Z,3.30
2022-10-06T05:13:58.680Z,1.20
2022-10-06T05:16:28.077Z,4.72
2022-10-06T05:18:54.717Z,1.75
2022-10-06T05:21:25.831Z,2.90
2022-10-06T05:23:52.820Z,2.50
2022-10-06T05:26:22.624Z,2.63
2022-10-06T05:28:49.187Z,3.03
2022-10-06T05:31:21.289Z,1.80
2022-10-06T05:33:48.026Z,3.10
2022-10-06T05:36:18.834Z,2.30
2022-10-06T05:38:45.788Z,2.28
2022-10-06T05:41:26.481Z,1.02
2022-10-06T05:43:53.284Z,1.30
2022-10-06T05:46:23.721Z,2.20
2022-10-06T05:48:56.659Z,1.58
2022-10-06T05:51:30.992Z,1.92
2022-10-06T05:53:58.867Z,2.90
2022-10-06T05:56:27.700Z,1.33
2022-10-06T05:58:55.469Z,2.60
2022-10-06T06:01:27.785Z,1.95
2022-10-06T06:04:00.168Z,3.67
2022-10-06T06:06:35.606Z,2.58
2022-10-06T06:09:06.804Z,2.55
2022-10-06T06:11:34.943Z,3.45
2022-10-06T06:14:04.081Z,2.20
2022-10-06T06:16:31.172Z,2.67
2022-10-06T06:18:58.096Z,1.50
2022-10-06T06:21:25.982Z,3.22
2022-10-06T06:23:52.832Z,2.08
2022-10-06T06:26:23.488Z,1.85
2022-10-06T06:28:54.362Z,3.13
2022-10-06T06:31:23.808Z,7.50
2022-10-06T06:33:58.192Z,2.75
2022-10-06T06:36:30.132Z,6.63
2022-10-06T06:38:58.078Z,4.03
2022-10-06T06:41:33.245Z,4.82
2022-10-06T06:44:00.223Z,2.83
2022-10-06T06:46:31.895Z,4.80
2022-10-06T06:49:04.422Z,3.92
2022-10-06T06:51:33.169Z,2.03
2022-10-06T06:54:02.198Z,2.00
2022-10-06T06:56:29.718Z,5.30
2022-10-06T06:58:56.021Z,4.47
2022-10-06T07:01:23.082Z,4.60
2022-10-06T07:03:59.122Z,3.50
2022-10-06T07:06:28.735Z,1.63
2022-10-06T07:08:57.083Z,3.42
2022-10-06T07:11:24.629Z,3.13
2022-10-06T07:13:57.674Z,7.00
2022-10-06T07:16:43.850Z,5.30
2022-10-06T07:19:30.617Z,5.20
2022-10-06T07:22:18.839Z,5.43
2022-10-06T07:25:04.756Z,17.80
2022-10-06T07:27:34.226Z,5.35
2022-10-06T07:30:00.566Z,4.20
2022-10-06T07:32:30.806Z,5.10
2022-10-06T07:34:58.666Z,4.30
2022-10-06T07:37:25.718Z,4.32
2022-10-06T07:39:52.035Z,3.53
2022-10-06T07:42:18.701Z,3.45
2022-10-06T07:45:08.630Z,2.58
2022-10-06T07:47:38.293Z,1.35
2022-10-06T07:50:08.449Z,14.60
2022-10-06T07:52:39.026Z,2.97
2022-10-06T07:55:05.995Z,7.88
2022-10-06T07:57:35.213Z,6.25
2022-10-06T08:00:05.453Z,2.58
2022-10-06T08:02:35.469Z,3.92
2022-10-06T08:05:02.858Z,6.68
2022-10-06T08:07:29.200Z,8.02
2022-10-06T08:09:55.532Z,8.38
2022-10-06T08:12:34.315Z,4.20
2022-10-06T08:15:06.030Z,7.53
2022-10-06T08:17:35.329Z,9.27
2022-10-06T08:20:01.900Z,8.88
2022-10-06T08:22:29.994Z,7.43
2022-10-06T08:25:05.920Z,8.40
2022-10-06T08:27:34.742Z,4.80
2022-10-06T08:30:01.428Z,7.70
2022-10-06T08:32:27.858Z,4.63
2022-10-06T08:34:54.545Z,7.68
2022-10-06T08:37:23.654Z,5.47
2022-10-06T08:39:53.734Z,5.28
2022-10-06T08:42:42.512Z,8.18
2022-10-06T08:45:24.019Z,7.25
2022-10-06T08:47:53.695Z,8.18
2022-10-06T08:50:21.896Z,5.03
2022-10-06T08:52:56.942Z,10.45
2022-10-06T08:55:34.320Z,6.78
2022-10-06T08:58:30.189Z,13.73
2022-10-06T09:01:23.346Z,6.57
2022-10-06T09:03:52.493Z,8.82
2022-10-06T09:07:09.195Z,8.15
2022-10-06T09:09:56.988Z,4.53
2022-10-06T09:12:32.796Z,10.00
2022-10-06T09:15:14.730Z,7.18
2022-10-06T09:20:42.489Z,7.68
2022-10-06T09:23:15.607Z,11.45
2022-10-06T09:25:42.038Z,7.18
2022-10-06T09:28:15.662Z,8.45
2022-10-06T09:30:43.243Z,5.00
2022-10-06T09:33:19.634Z,9.93
2022-10-06T09:36:09.133Z,6.53
2022-10-06T09:38:53.915Z,8.95
2022-10-06T09:41:24.749Z,14.27
2022-10-06T09:44:06.176Z,10.65
2022-10-06T09:46:35.005Z,8.90
2022-10-06T09:49:17.389Z,7.05
2022-10-06T09:52:16.073Z,11.43
2022-10-06T09:54:43.746Z,13.82
2022-10-06T09:57:28.107Z,9.32
2022-10-06T09:59:58.004Z,5.95
2022-10-06T10:02:39.491Z,7.50
2022-10-06T10:05:18.690Z,11.90
2022-10-06T10:07:48.032Z,10.70
2022-10-06T10:10:19.464Z,11.18
2022-10-06T10:12:53.762Z,5.22
2022-10-06T10:15:20.031Z,9.73
2022-10-06T10:17:52.738Z,8.18
2022-10-06T10:20:25.019Z,6.25
2022-10-06T10:22:52.969Z,7.25
2022-10-06T10:26:14.060Z,7.70
2022-10-06T10:28:51.980Z,10.25
2022-10-06T10:31:31.271Z,7.25
2022-10-06T10:34:24.033Z,10.40
2022-10-06T10:36:57.494Z,10.40
2022-10-06T10:39:38.616Z,13.00
2022-10-06T10:42:14.480Z,9.52
2022-10-06T10:44:53.503Z,4.53
2022-10-06T10:47:28.132Z,9.05
2022-10-06T10:50:08.699Z,8.30
2022-10-06T10:52:41.613Z,5.88
2022-10-06T10:55:39.561Z,8.35
2022-10-06T10:58:31.905Z,7.97
2022-10-06T11:01:07.868Z,9.90
2022-10-06T11:03:34.262Z,5.50
2022-10-06T11:06:06.778Z,8.43
2022-10-06T11:09:01.399Z,11.25
2022-10-06T11:11:37.789Z,7.95
2022-10-06T11:14:26.224Z,10.23
2022-10-06T11:16:58.316Z,8.48
2022-10-06T11:19:47.397Z,6.38
2022-10-06T11:22:41.671Z,6.95
2022-10-06T11:25:27.540Z,6.32
2022-10-06T11:28:05.415Z,5.82
2022-10-06T11:30:36.844Z,12.77
2022-10-06T11:33:40.891Z,8.25
2022-10-06T11:36:15.368Z,9.48
2022-10-06T11:38:47.434Z,9.18
2022-10-06T11:41:28.061Z,6.85
2022-10-06T11:44:12.856Z,5.53
2022-10-06T11:46:49.779Z,6.85
2022-10-06T11:49:28.485Z,6.38
2022-10-06T11:52:14.783Z,4.72
2022-10-06T11:54:50.003Z,7.70
2022-10-06T11:57:25.021Z,9.70
2022-10-06T12:00:17.307Z,10.00
2022-10-06T12:02:46.290Z,9.50
2022-10-06T12:05:55.395Z,8.30
2022-10-06T12:08:02.692Z,9.15
2022-10-06T12:10:28.963Z,6.65
2022-10-06T12:13:21.195Z,6.45
2022-10-06T12:19:21.796Z,5.95
2022-10-06T12:22:30.882Z,9.70
2022-10-06T12:25:06.768Z,9.18
2022-10-06T12:27:59.221Z,9.65
2022-10-06T12:31:02.361Z,5.28
2022-10-06T12:33:38.149Z,8.48
2022-10-06T12:36:15.221Z,9.02
2022-10-06T12:39:00.161Z,10.13
2022-10-06T12:41:58.851Z,7.10
2022-10-06T12:44:37.259Z,10.65
2022-10-06T12:47:32.543Z,6.68
2022-10-06T12:50:06.960Z,9.77
2022-10-06T12:52:46.220Z,7.30
2022-10-06T12:55:50.275Z,7.60
2022-10-06T12:58:28.933Z,7.78
2022-10-06T13:01:09.397Z,8.98
2022-10-06T13:03:37.287Z,4.35
2022-10-06T13:06:06.840Z,4.88
2022-10-06T13:08:38.060Z,8.80
2022-10-06T13:11:16.676Z,8.13
2022-10-06T13:13:58.561Z,7.32
2022-10-06T13:18:59.078Z,5.18
2022-10-06T13:21:26.040Z,4.10
2022-10-06T13:23:52.687Z,8.10
2022-10-06T13:26:32.215Z,5.40
2022-10-06T13:28:59.994Z,5.68
2022-10-06T13:31:35.108Z,5.30
2022-10-06T13:34:09.772Z,7.95
2022-10-06T13:36:38.852Z,8.80
2022-10-06T13:39:06.793Z,10.02
2022-10-06T13:41:37.999Z,3.92
2022-10-06T13:44:14.175Z,4.65
2022-10-06T13:46:53.062Z,5.28
2022-10-06T13:49:25.994Z,3.85
2022-10-06T13:51:54.453Z,16.20
2022-10-06T13:54:29.649Z,6.95
2022-10-06T13:56:56.766Z,12.38
2022-10-06T13:59:28.605Z,4.55
2022-10-06T14:04:23.178Z,5.43
2022-10-06T14:07:01.435Z,5.55
2022-10-06T14:09:31.598Z,13.02
2022-10-06T14:12:07.347Z,5.13
2022-10-06T14:14:33.889Z,8.88
2022-10-06T14:17:00.807Z,4.63
2022-10-06T14:19:34.929Z,7.03
2022-10-06T14:22:02.474Z,4.50
2022-10-06T14:24:30.032Z,7.05
2022-10-06T14:27:01.690Z,4.32
2022-10-06T14:29:28.149Z,4.90
2022-10-06T14:31:54.723Z,6.68
2022-10-06T14:34:22.372Z,6.88
2022-10-06T14:36:55.155Z,5.43
2022-10-06T14:39:21.991Z,5.32
2022-10-06T14:41:48.428Z,4.65
2022-10-06T14:44:15.927Z,5.88
2022-10-06T14:46:47.412Z,6.03
2022-10-06T14:49:14.359Z,4.82
2022-10-06T14:51:42.529Z,10.32
2022-10-06T14:54:11.443Z,6.35
2022-10-06T14:56:39.228Z,5.65
2022-10-06T14:59:08.130Z,9.23
2022-10-06T15:01:37.703Z,6.25
2022-10-06T15:04:15.300Z,5.97
2022-10-06T15:07:00.793Z,3.85
2022-10-06T15:09:30.582Z,4.30
2022-10-06T15:11:57.733Z,6.05
2022-10-06T15:14:24.153Z,7.70
2022-10-06T15:16:51.038Z,6.28
2022-10-06T15:19:17.656Z,8.43
2022-10-06T15:21:47.117Z,7.43
2022-10-06T15:24:16.066Z,18.83
2022-10-06T15:27:01.678Z,19.88
2022-10-06T15:29:28.541Z,13.55
2022-10-06T15:31:55.215Z,9.15
2022-10-06T15:34:41.357Z,15.98
2022-10-06T15:37:08.209Z,12.18
2022-10-06T15:39:36.799Z,9.88
2022-10-06T15:42:03.645Z,12.00
2022-10-06T15:44:36.164Z,7.15
2022-10-06T15:47:05.195Z,13.13
2022-10-06T15:49:32.869Z,5.78
2022-10-06T15:52:02.785Z,8.73
2022-10-06T15:54:33.669Z,6.63
2022-10-06T15:57:02.546Z,8.57
2022-10-06T15:59:32.412Z,7.47
2022-10-06T16:02:02.525Z,5.63
2022-10-06T16:04:48.201Z,7.63
2022-10-06T16:07:19.426Z,6.90
2022-10-06T16:09:48.515Z,5.95
2022-10-06T16:12:18.072Z,10.27
2022-10-06T16:14:44.604Z,15.93
2022-10-06T16:17:12.153Z,17.63
2022-10-06T16:19:40.241Z,14.23
2022-10-06T16:22:08.942Z,24.05
2022-10-06T16:24:35.276Z,33.58
2022-10-06T16:27:01.877Z,38.40
2022-10-06T16:29:30.285Z,43.30
2022-10-06T16:31:56.874Z,57.03
2022-10-06T16:34:23.389Z,52.15
2022-10-06T16:36:49.766Z,70.10
2022-10-06T16:39:19.242Z,62.78
2022-10-06T16:41:48.104Z,58.15
2022-10-06T16:44:14.655Z,61.88
2022-10-06T16:46:41.380Z,75.70
2022-10-06T16:49:08.598Z,79.15
2022-10-06T16:51:40.290Z,72.88
2022-10-06T16:54:14.288Z,80.35
2022-10-06T16:56:46.576Z,77.40
2022-10-06T16:59:45.779Z,83.68
2022-10-06T17:02:14.484Z,73.75
2022-10-06T17:04:40.905Z,73.18
2022-10-06T17:07:07.362Z,73.13
2022-10-06T17:09:33.903Z,68.32
2022-10-06T17:12:02.813Z,56.63
2022-10-06T17:14:31.669Z,42.78
2022-10-06T17:16:59.091Z,33.17
2022-10-06T17:19:28.436Z,25.33
2022-10-06T17:21:59.107Z,21.77
2022-10-06T17:24:28.006Z,22.08
2022-10-06T17:26:56.536Z,25.52
2022-10-06T17:29:23.550Z,19.10
2022-10-06T17:32:19.987Z,21.67
2022-10-06T17:34:46.413Z,14.02
2022-10-06T17:37:17.259Z,14.18
2022-10-06T17:39:47.027Z,19.57
2022-10-06T17:42:15.049Z,11.13
2022-10-06T17:44:41.443Z,12.85
2022-10-06T17:47:12.190Z,14.00
2022-10-06T17:49:38.545Z,10.65
2022-10-06T17:52:05.920Z,10.90
2022-10-06T17:54:32.504Z,10.30
2022-10-06T17:56:59.259Z,10.80
2022-10-06T17:59:31.831Z,15.35
2022-10-06T18:02:00.825Z,9.45
2022-10-06T18:04:28.337Z,6.07
2022-10-06T18:06:55.183Z,6.85
2022-10-06T18:09:22.550Z,9.05
2022-10-06T18:11:54.559Z,11.32
2022-10-06T18:14:22.734Z,10.20
2022-10-06T18:16:56.182Z,5.97
2022-10-06T18:19:26.363Z,7.43
2022-10-06T18:21:54.739Z,5.03
2022-10-06T18:24:23.852Z,6.63
2022-10-06T18:26:52.463Z,9.32
2022-10-06T18:29:21.967Z,8.32
2022-10-06T18:31:50.306Z,9.13
2022-10-06T18:37:04.430Z,9.05
2022-10-06T18:39:31.989Z,9.55
2022-10-06T18:42:02.371Z,5.45
2022-10-06T18:44:47.544Z,8.55
2022-10-06T18:47:32.156Z,2.70
2022-10-06T18:49:58.546Z,10.02
2022-10-06T18:52:24.875Z,5.38
2022-10-06T18:54:51.175Z,4.22
2022-10-06T18:57:17.617Z,4.93
2022-10-06T18:59:44.442Z,4.32
2022-10-06T19:02:11.322Z,6.38
2022-10-06T19:04:39.210Z,10.40
2022-10-06T19:07:05.632Z,7.13
2022-10-06T19:09:31.940Z,6.38
2022-10-06T19:11:58.811Z,7.20
2022-10-06T19:14:27.372Z,7.65
2022-10-06T19:17:06.553Z,7.20
2022-10-06T19:19:33.978Z,6.65
2022-10-06T19:22:02.613Z,6.25
2022-10-06T19:24:32.802Z,6.25
2022-10-06T19:26:59.721Z,4.72
2022-10-06T19:29:26.949Z,8.85
2022-10-06T19:31:56.704Z,6.30
2022-10-06T19:34:25.020Z,4.45
2022-10-06T19:36:55.073Z,8.05
2022-10-06T19:39:24.705Z,6.20
2022-10-06T19:42:10.333Z,6.75
2022-10-06T19:44:42.760Z,6.25
2022-10-06T19:47:14.548Z,7.57
2022-10-06T19:49:41.966Z,5.78
2022-10-06T19:52:09.957Z,6.97
2022-10-06T19:54:37.129Z,4.60
2022-10-06T19:57:05.600Z,6.45
2022-10-06T19:59:33.002Z,3.80
2022-10-06T20:01:59.350Z,5.20
2022-10-06T20:04:25.862Z,5.80
2022-10-06T20:06:52.558Z,5.80
2022-10-06T20:09:22.172Z,5.65
2022-10-06T20:11:50.272Z,8.52
2022-10-06T20:14:21.090Z,7.20
2022-10-06T20:16:50.811Z,7.55
2022-10-06T20:19:18.528Z,6.75
2022-10-06T20:21:45.400Z,5.55
2022-10-06T20:24:22.868Z,6.10
2022-10-06T20:26:50.918Z,7.40
2022-10-06T20:29:23.226Z,6.03
2022-10-06T20:31:52.301Z,5.75
2022-10-06T20:34:21.880Z,7.15
2022-10-06T20:36:53.119Z,10.20
2022-10-06T20:39:41.059Z,6.32
2022-10-06T20:42:12.242Z,4.90
2022-10-06T20:44:42.005Z,6.30
2022-10-06T20:47:08.912Z,7.32
2022-10-06T20:49:35.284Z,6.35
2022-10-06T20:52:02.719Z,3.58
2022-10-06T20:54:34.898Z,4.97
2022-10-06T20:57:03.932Z,4.40
2022-10-06T20:59:31.582Z,7.63
2022-10-06T21:02:00.078Z,4.63
2022-10-06T21:04:27.556Z,7.78
2022-10-06T21:06:53.994Z,5.20
2022-10-06T21:09:20.551Z,6.72
2022-10-06T21:11:47.695Z,7.15
2022-10-06T21:14:14.632Z,3.42
2022-10-06T21:16:45.394Z,8.68
2022-10-06T21:19:14.498Z,3.53
2022-10-06T21:21:42.297Z,7.95
2022-10-06T21:24:08.895Z,7.43
2022-10-06T21:26:35.781Z,6.68
2022-10-06T21:29:03.072Z,2.60
2022-10-06T21:31:29.592Z,5.22
2022-10-06T21:33:56.325Z,9.00
2022-10-06T21:36:25.475Z,5.35
2022-10-06T21:38:57.698Z,7.70
2022-10-06T21:41:30.434Z,3.08
2022-10-06T21:44:03.465Z,5.43
2022-10-06T21:46:35.542Z,5.25
2022-10-06T21:49:04.056Z,4.15
2022-10-06T21:51:31.760Z,5.82
2022-10-06T21:53:59.707Z,4.30
2022-10-06T21:56:27.900Z,5.10
2022-10-06T21:58:55.837Z,5.70
2022-10-06T22:01:25.212Z,6.35
2022-10-06T22:03:51.845Z,6.68
2022-10-06T22:06:19.751Z,7.57
2022-10-06T22:08:46.970Z,6.97
2022-10-06T22:11:18.233Z,7.18
2022-10-06T22:13:48.048Z,7.50
2022-10-06T22:16:18.910Z,6.38
2022-10-06T22:18:46.140Z,9.50
2022-10-06T22:21:13.892Z,4.68
2022-10-06T22:23:45.439Z,5.75
2022-10-06T22:26:13.506Z,3.53
2022-10-06T22:28:45.127Z,6.97
2022-10-06T22:31:12.059Z,5.82
2022-10-06T22:33:40.002Z,6.60
2022-10-06T22:36:07.387Z,7.15
2022-10-06T22:38:34.735Z,5.60
2022-10-06T22:41:02.680Z,5.20
2022-10-06T22:43:29.648Z,10.32
2022-10-06T22:45:57.541Z,5.65
2022-10-06T22:48:24.230Z,7.22
2022-10-06T22:50:51.030Z,6.07
2022-10-06T22:53:19.452Z,5.60
2022-10-06T22:55:46.552Z,6.57
2022-10-06T22:58:13.655Z,6.45
2022-10-06T23:00:40.770Z,4.55
2022-10-06T23:03:07.996Z,5.10
2022-10-06T23:05:35.303Z,5.65
2022-10-06T23:08:03.136Z,6.25
2022-10-06T23:10:30.463Z,6.68
2022-10-06T23:12:58.262Z,6.60
2022-10-06T23:15:25.664Z,5.22
2022-10-06T23:17:52.479Z,10.20
2022-10-06T23:20:19.770Z,7.25
2022-10-06T23:22:46.213Z,5.30
2022-10-06T23:25:12.836Z,10.02
2022-10-06T23:27:39.317Z,7.93
2022-10-06T23:30:06.676Z,3.60
2022-10-06T23:32:33.180Z,4.07
2022-10-06T23:34:59.529Z,5.72
2022-10-06T23:37:25.951Z,4.57
2022-10-06T23:39:52.691Z,6.85
2022-10-06T23:42:19.111Z,6.72
2022-10-06T23:44:45.512Z,3.08
2022-10-06T23:47:11.859Z,9.25
2022-10-06T23:49:38.212Z,5.53
2022-10-06T23:52:04.558Z,6.50
2022-10-06T23:54:30.939Z,9.20
2022-10-06T23:56:57.291Z,5.85
2022-10-06T23:59:23.736Z,4.30
